Southmayd, TX (76268)

3:04 AM CST on February 10, 2016 (GMT -0600)
Stetson Dr | | Change Station
CLOSE
Current Station
Personal Weather Station
Location: Whitesboro, TX
Elevation: 755 ft
Nearby Weather Stations

Elev 755 ft 33.61 °N, 96.77 °W | Updated 8 seconds ago

Clear
Clear
30.6 °F
Feels Like 31 °F
N
2.0
Wind Variable Wind from South
Gusts 2.7 mph

Today
High -- | Low -- °F
--% Chance of Precip.
Yesterday
High -- | Low -- °F
Precip. -- in
Pressure 30.33 in
Visibility 10.0 miles
Clouds Clear
Windchill 31 °F
Dew Point 25 °F
Humidity 80%
Rainfall 0.00 in
Snow Depth Not available.
7:16 AM 6:06 PM
Waxing Crescent, 4% visible
METAR KGYI 100855Z AUTO 20003KT 10SM CLR 00/M04 A3033 RMK AO2 T00031045
Pressure 30.33 in
Visibility 10.0 miles
Clouds Clear
Windchill 31 °F
Dew Point 25 °F
Humidity 80%
Rainfall 0.00 in
Snow Depth Not available.
7:16 AM 6:06 PM
Waxing Crescent, 4% visible
METAR KGYI 100855Z AUTO 20003KT 10SM CLR 00/M04 A3033 RMK AO2 T00031045

10-Day Weather Forecast

Almanac

Astronomy

Feb. 10, 2016 Rise Set
Actual Time
Civil Twilight
Nautical Twilight
Astronomical Twilight
Moon
Length of Visible Light
Length of Day
Tomorrow will be .
, % of the Moon is Illuminated

Today's Extremes

State Highs State Lows

Community

WunderPhotos

Upload Photos

1,891,826 photos uploaded!

WunderBlog® & News

Nearby

Air Quality

  Air Quality AQ Index Pollutant
Not available.

Snow Depth

Station Depth Elevation

Earthquake Activity

City Distance Mag. Time & Date
Minimum magnitude displayed is 2.5.

Coastal Water Temperatures

Place Temperature

Stations

Nearby Weather Stations

Station Location Temp. Windchill Dew Point Humidity Wind Precip. Elev Updated Type
                   

Watches & Warnings

There are currently no watches in effect.